createdAt,value
2023-06-17T00:00:48.139Z,98420.13
2023-06-17T00:03:15.032Z,98408.72
2023-06-17T00:05:42.559Z,98407.19
2023-06-17T00:08:09.398Z,98411.00
2023-06-17T00:10:36.096Z,98409.50
2023-06-17T00:13:03.589Z,98413.22
2023-06-17T00:15:34.033Z,98412.53
2023-06-17T00:18:01.993Z,98408.91
2023-06-17T00:20:30.249Z,98409.25
2023-06-17T00:22:57.161Z,98411.41
2023-06-17T00:25:24.015Z,98407.16
2023-06-17T00:27:50.778Z,98410.66
2023-06-17T00:30:17.996Z,98409.25
2023-06-17T00:32:45.229Z,98404.22
2023-06-17T00:35:12.823Z,98404.22
2023-06-17T00:37:39.478Z,98399.91
2023-06-17T00:40:10.599Z,98400.97
2023-06-17T00:42:37.620Z,98406.63
2023-06-17T00:45:04.974Z,98397.84
2023-06-17T00:47:31.941Z,98399.53
2023-06-17T00:49:59.247Z,98391.06
2023-06-17T00:52:41.002Z,98392.72
2023-06-17T00:55:10.707Z,98389.50
2023-06-17T00:57:39.479Z,98387.75
2023-06-17T01:00:11.193Z,98386.63
2023-06-17T01:02:41.585Z,98375.59
2023-06-17T01:05:13.597Z,98374.50
2023-06-17T01:07:59.054Z,98379.75
2023-06-17T01:10:35.339Z,98368.91
2023-06-17T01:13:04.841Z,98375.88
2023-06-17T01:15:37.236Z,98373.28
2023-06-17T01:18:06.067Z,98372.69
2023-06-17T01:20:33.871Z,98372.59
2023-06-17T01:23:02.312Z,98380.78
2023-06-17T01:25:33.003Z,98371.19
2023-06-17T01:28:11.517Z,98383.56
2023-06-17T01:30:38.247Z,98381.56
2023-06-17T01:33:05.112Z,98391.84
2023-06-17T01:35:33.662Z,98380.53
2023-06-17T01:38:08.648Z,98383.94
2023-06-17T01:40:36.296Z,98387.94
2023-06-17T01:43:05.385Z,98394.69
2023-06-17T01:45:33.276Z,98385.44
2023-06-17T01:48:00.356Z,98387.72
2023-06-17T01:50:27.152Z,98381.91
2023-06-17T01:52:53.930Z,98385.66
2023-06-17T01:55:20.811Z,98379.44
2023-06-17T01:57:47.619Z,98380.25
2023-06-17T02:00:14.935Z,98377.97
2023-06-17T02:02:51.958Z,98377.28
2023-06-17T02:05:20.913Z,98373.66
2023-06-17T02:07:48.512Z,98373.66
2023-06-17T02:10:15.803Z,98375.56
2023-06-17T02:12:42.900Z,98376.72
2023-06-17T02:15:10.342Z,98376.47
2023-06-17T02:17:37.206Z,98382.19
2023-06-17T02:20:07.416Z,98374.41
2023-06-17T02:22:34.555Z,98381.84
2023-06-17T02:25:01.518Z,98372.97
2023-06-17T02:27:28.498Z,98372.09
2023-06-17T02:29:57.451Z,98371.16
2023-06-17T02:32:24.540Z,98365.97
2023-06-17T02:34:51.868Z,98366.53
2023-06-17T02:37:18.539Z,98366.75
2023-06-17T02:39:45.329Z,98359.13
2023-06-17T02:42:12.825Z,98371.13
2023-06-17T02:44:39.689Z,98360.66
2023-06-17T02:47:07.796Z,98372.44
2023-06-17T02:49:34.656Z,98366.22
2023-06-17T02:52:01.491Z,98363.81
2023-06-17T02:54:28.516Z,98356.88
2023-06-17T02:56:56.038Z,98349.97
2023-06-17T02:59:23.830Z,98353.56
2023-06-17T03:01:52.484Z,98349.53
2023-06-17T03:04:21.971Z,98359.19
2023-06-17T03:06:52.029Z,98352.41
2023-06-17T03:09:19.427Z,98358.78
2023-06-17T03:11:47.065Z,98351.69
2023-06-17T03:14:13.807Z,98353.69
2023-06-17T03:16:41.746Z,98357.44
2023-06-17T03:19:09.100Z,98356.66
2023-06-17T03:21:41.914Z,98347.63
2023-06-17T03:24:09.512Z,98348.06
2023-06-17T03:26:36.339Z,98351.53
2023-06-17T03:29:04.306Z,98359.06
2023-06-17T03:31:31.852Z,98353.81
2023-06-17T03:33:58.821Z,98343.72
2023-06-17T03:36:29.472Z,98345.22
2023-06-17T03:38:57.852Z,98344.88
2023-06-17T03:41:27.208Z,98343.03
2023-06-17T03:43:53.965Z,98348.63
2023-06-17T03:46:21.300Z,98344.59
2023-06-17T03:48:48.157Z,98345.03
2023-06-17T03:51:14.970Z,98339.47
2023-06-17T03:53:41.886Z,98345.53
2023-06-17T03:56:08.793Z,98353.03
2023-06-17T03:58:35.482Z,98354.06
2023-06-17T04:01:02.169Z,98355.31
2023-06-17T04:03:29.248Z,98354.22
2023-06-17T04:05:56.802Z,98356.72
2023-06-17T04:08:24.619Z,98370.66
2023-06-17T04:10:53.853Z,98371.31
2023-06-17T04:13:20.585Z,98367.16
2023-06-17T04:15:47.548Z,98371.16
2023-06-17T04:18:14.567Z,98370.84
2023-06-17T04:20:41.468Z,98359.03
2023-06-17T04:23:08.542Z,98363.97
2023-06-17T04:25:38.406Z,98362.19
2023-06-17T04:28:13.888Z,98363.56
2023-06-17T04:30:41.416Z,98361.53
2023-06-17T04:33:12.635Z,98363.75
2023-06-17T04:35:43.066Z,98352.47
2023-06-17T04:38:11.490Z,98352.69
2023-06-17T04:40:39.767Z,98352.34
2023-06-17T04:43:09.811Z,98358.78
2023-06-17T04:45:37.074Z,98358.97
2023-06-17T04:48:06.837Z,98357.81
2023-06-17T04:50:34.590Z,98358.91
2023-06-17T04:53:07.243Z,98364.03
2023-06-17T04:55:37.298Z,98362.97
2023-06-17T04:58:06.046Z,98364.59
2023-06-17T05:00:40.778Z,98368.72
2023-06-17T05:03:08.902Z,98378.69
2023-06-17T05:05:36.833Z,98372.28
2023-06-17T05:08:04.135Z,98371.38
2023-06-17T05:10:31.256Z,98368.72
2023-06-17T05:12:58.072Z,98372.97
2023-06-17T05:15:27.417Z,98370.63
2023-06-17T05:17:54.272Z,98367.69
2023-06-17T05:20:21.247Z,98366.00
2023-06-17T05:22:48.056Z,98364.47
2023-06-17T05:25:15.169Z,98358.25
2023-06-17T05:27:41.874Z,98368.19
2023-06-17T05:30:09.902Z,98368.31
2023-06-17T05:32:38.966Z,98369.31
2023-06-17T05:35:06.286Z,98382.63
2023-06-17T05:37:34.261Z,98379.94
2023-06-17T05:40:03.276Z,98370.78
2023-06-17T05:42:30.423Z,98374.31
2023-06-17T05:44:57.680Z,98373.09
2023-06-17T05:47:25.313Z,98374.50
2023-06-17T05:49:52.058Z,98371.19
2023-06-17T05:52:18.877Z,98368.28
2023-06-17T05:54:45.741Z,98365.41
2023-06-17T05:57:12.630Z,98365.44
2023-06-17T05:59:39.315Z,98372.91
2023-06-17T06:02:06.247Z,98370.13
2023-06-17T06:04:32.971Z,98363.47
2023-06-17T06:06:59.899Z,98365.38
2023-06-17T06:09:26.657Z,98365.19
2023-06-17T06:11:53.344Z,98362.84
2023-06-17T06:14:20.172Z,98363.75
2023-06-17T06:16:48.694Z,98355.91
2023-06-17T06:19:15.983Z,98360.34
2023-06-17T06:21:43.533Z,98364.88
2023-06-17T06:24:10.524Z,98365.03
2023-06-17T06:26:38.974Z,98363.38
2023-06-17T06:29:08.483Z,98357.41
2023-06-17T06:31:35.168Z,98360.34
2023-06-17T06:34:02.053Z,98362.47
2023-06-17T06:36:28.748Z,98366.09
2023-06-17T06:38:55.750Z,98359.69
2023-06-17T06:41:22.504Z,98351.28
2023-06-17T06:44:04.905Z,98356.78
2023-06-17T06:46:32.791Z,98357.28
2023-06-17T06:49:00.147Z,98359.84
2023-06-17T06:51:27.954Z,98359.22
2023-06-17T06:53:54.971Z,98363.53
2023-06-17T06:56:21.783Z,98352.78
2023-06-17T06:58:48.434Z,98354.97
2023-06-17T07:01:15.178Z,98356.84
2023-06-17T07:03:42.912Z,98358.59
2023-06-17T07:06:10.074Z,98358.56
2023-06-17T07:08:37.351Z,98362.28
2023-06-17T07:11:04.114Z,98357.47
2023-06-17T07:13:30.830Z,98356.91
2023-06-17T07:15:57.551Z,98354.34
2023-06-17T07:18:24.306Z,98356.66
2023-06-17T07:20:51.069Z,98358.09
2023-06-17T07:23:18.927Z,98359.34
2023-06-17T07:25:45.673Z,98356.53
2023-06-17T07:28:14.022Z,98359.78
2023-06-17T07:30:41.618Z,98355.31
2023-06-17T07:33:08.677Z,98338.00
2023-06-17T07:35:35.544Z,98339.44
2023-06-17T07:38:02.217Z,98341.59
2023-06-17T07:40:30.288Z,98337.88
2023-06-17T07:42:56.961Z,98339.44
2023-06-17T07:45:23.673Z,98330.97
2023-06-17T07:47:50.558Z,98332.38
2023-06-17T07:50:17.289Z,98333.38
2023-06-17T07:52:44.053Z,98334.56
2023-06-17T07:55:11.800Z,98332.84
2023-06-17T07:57:38.637Z,98335.66
2023-06-17T08:00:14.282Z,98319.44
2023-06-17T08:02:44.127Z,98325.69
2023-06-17T08:05:11.253Z,98319.34
2023-06-17T08:07:38.023Z,98315.53
2023-06-17T08:10:07.367Z,98311.38
2023-06-17T08:12:36.366Z,98310.41
2023-06-17T08:15:03.284Z,98302.31
2023-06-17T08:17:30.238Z,98304.06
2023-06-17T08:19:57.165Z,98293.03
2023-06-17T08:22:24.258Z,98303.31
2023-06-17T08:24:50.958Z,98307.16
2023-06-17T08:27:17.790Z,98303.38
2023-06-17T08:29:44.519Z,98296.97
2023-06-17T08:32:11.241Z,98295.47
2023-06-17T08:34:38.145Z,98295.00
2023-06-17T08:37:05.865Z,98291.66
2023-06-17T08:39:33.105Z,98293.31
2023-06-17T08:42:00.022Z,98288.88
2023-06-17T08:44:28.649Z,98284.09
2023-06-17T08:46:59.522Z,98279.63
2023-06-17T08:49:28.040Z,98280.22
2023-06-17T08:51:55.100Z,98282.09
2023-06-17T08:54:22.600Z,98280.22
2023-06-17T08:56:49.508Z,98278.28
2023-06-17T08:59:16.255Z,98272.25
2023-06-17T09:01:44.742Z,98273.47
2023-06-17T09:04:12.912Z,98278.56
2023-06-17T09:06:39.629Z,98267.81
2023-06-17T09:09:06.584Z,98262.88
2023-06-17T09:11:33.971Z,98275.97
2023-06-17T09:14:02.526Z,98273.72
2023-06-17T09:16:30.291Z,98268.47
2023-06-17T09:19:04.896Z,98278.88
2023-06-17T09:21:32.582Z,98271.97
2023-06-17T09:24:02.005Z,98274.16
2023-06-17T09:26:34.346Z,98274.03
2023-06-17T09:29:06.253Z,98269.00
2023-06-17T09:31:46.794Z,98265.81
2023-06-17T09:34:14.862Z,98259.53
2023-06-17T09:36:41.966Z,98258.97
2023-06-17T09:39:13.200Z,98258.91
2023-06-17T09:41:41.542Z,98251.69
2023-06-17T09:44:09.069Z,98258.09
2023-06-17T09:46:37.671Z,98253.16
2023-06-17T09:49:10.395Z,98251.72
2023-06-17T09:51:38.960Z,98253.78
2023-06-17T09:54:07.310Z,98245.72
2023-06-17T09:56:35.585Z,98248.97
2023-06-17T09:59:08.514Z,98259.72
2023-06-17T10:01:40.791Z,98256.16
2023-06-17T10:04:08.600Z,98257.97
2023-06-17T10:06:38.733Z,98256.09
2023-06-17T10:09:08.339Z,98260.81
2023-06-17T10:11:36.149Z,98260.72
2023-06-17T10:14:07.259Z,98261.63
2023-06-17T10:16:45.003Z,98254.63
2023-06-17T10:19:16.187Z,98248.50
2023-06-17T10:21:46.674Z,98247.75
2023-06-17T10:24:15.127Z,98248.22
2023-06-17T10:26:41.856Z,98247.88
2023-06-17T10:29:11.342Z,98243.44
2023-06-17T10:31:40.226Z,98240.63
2023-06-17T10:34:17.591Z,98239.00
2023-06-17T10:36:52.853Z,98242.22
2023-06-17T10:39:19.865Z,98236.31
2023-06-17T10:41:56.993Z,98238.53
2023-06-17T10:44:36.354Z,98245.69
2023-06-17T10:47:15.373Z,98230.53
2023-06-17T10:49:47.147Z,98227.03
2023-06-17T10:52:14.740Z,98230.94
2023-06-17T10:54:50.450Z,98228.06
2023-06-17T10:57:17.248Z,98222.47
2023-06-17T10:59:44.055Z,98217.22
2023-06-17T11:02:10.909Z,98219.31
2023-06-17T11:04:42.313Z,98214.41
2023-06-17T11:07:09.503Z,98222.16
2023-06-17T11:09:38.220Z,98224.94
2023-06-17T11:12:05.490Z,98212.03
2023-06-17T11:14:33.692Z,98216.69
2023-06-17T11:17:00.889Z,98216.59
2023-06-17T11:19:27.858Z,98211.78
2023-06-17T11:22:04.082Z,98204.56
2023-06-17T11:24:31.899Z,98201.94
2023-06-17T11:26:59.299Z,98214.06
2023-06-17T11:29:29.517Z,98197.47
2023-06-17T11:32:01.123Z,98196.72
2023-06-17T11:34:33.890Z,98194.56
2023-06-17T11:37:03.045Z,98189.13
2023-06-17T11:39:31.955Z,98193.41
2023-06-17T11:42:02.858Z,98188.50
2023-06-17T11:44:31.535Z,98184.38
2023-06-17T11:47:04.208Z,98183.50
2023-06-17T11:49:31.324Z,98183.16
2023-06-17T11:52:10.132Z,98181.91
2023-06-17T11:54:49.471Z,98184.72
2023-06-17T11:57:21.248Z,98174.41
2023-06-17T11:59:48.523Z,98174.25
2023-06-17T12:02:16.942Z,98163.88
2023-06-17T12:04:45.040Z,98168.63
2023-06-17T12:07:11.962Z,98169.25
2023-06-17T12:09:39.465Z,98156.63
2023-06-17T12:12:11.717Z,98169.19
2023-06-17T12:14:38.583Z,98167.81
2023-06-17T12:17:05.705Z,98162.41
2023-06-17T12:19:32.461Z,98164.09
2023-06-17T12:22:01.781Z,98167.97
2023-06-17T12:24:28.722Z,98167.28
2023-06-17T12:26:55.481Z,98166.97
2023-06-17T12:29:25.995Z,98157.34
2023-06-17T12:31:54.074Z,98156.97
2023-06-17T12:34:20.874Z,98153.63
2023-06-17T12:36:48.320Z,98159.13
2023-06-17T12:39:15.213Z,98156.97
2023-06-17T12:41:41.965Z,98153.63
2023-06-17T12:44:08.892Z,98147.91
2023-06-17T12:46:36.752Z,98152.81
2023-06-17T12:49:03.770Z,98148.50
2023-06-17T12:51:30.602Z,98154.03
2023-06-17T12:53:57.335Z,98147.78
2023-06-17T12:56:23.983Z,98141.41
2023-06-17T12:58:50.816Z,98138.34
2023-06-17T13:01:17.986Z,98137.22
2023-06-17T13:03:45.107Z,98142.47
2023-06-17T13:06:11.920Z,98133.44
2023-06-17T13:08:38.608Z,98139.66
2023-06-17T13:11:05.267Z,98148.09
2023-06-17T13:13:32.636Z,98138.72
2023-06-17T13:15:59.486Z,98140.50
2023-06-17T13:18:26.439Z,98141.06
2023-06-17T13:20:53.462Z,98132.25
2023-06-17T13:23:20.534Z,98135.91
2023-06-17T13:25:47.470Z,98139.88
2023-06-17T13:28:14.207Z,98137.59
2023-06-17T13:30:41.362Z,98147.53
2023-06-17T13:33:08.617Z,98144.81
2023-06-17T13:35:35.483Z,98139.94
2023-06-17T13:38:03.996Z,98127.50
2023-06-17T13:40:30.849Z,98129.31
2023-06-17T13:42:57.673Z,98126.16
2023-06-17T13:45:24.348Z,98127.88
2023-06-17T13:47:51.262Z,98114.81
2023-06-17T13:50:18.137Z,98123.69
2023-06-17T13:52:44.895Z,98120.72
2023-06-17T13:55:11.848Z,98118.75
2023-06-17T13:57:38.555Z,98115.97
2023-06-17T14:00:05.809Z,98123.28
2023-06-17T14:02:32.658Z,98117.78
2023-06-17T14:04:59.790Z,98120.22
2023-06-17T14:07:26.578Z,98116.13
2023-06-17T14:09:53.336Z,98104.41
2023-06-17T14:12:21.440Z,98119.50
2023-06-17T14:14:48.603Z,98116.22
2023-06-17T14:17:15.515Z,98112.22
2023-06-17T14:19:42.211Z,98107.47
2023-06-17T14:22:10.069Z,98109.19
2023-06-17T14:24:38.862Z,98113.22
2023-06-17T14:27:36.232Z,98104.66
2023-06-17T14:30:04.971Z,98103.75
2023-06-17T14:32:32.503Z,98096.91
2023-06-17T14:34:59.899Z,98097.25
2023-06-17T14:37:26.725Z,98095.94
2023-06-17T14:39:53.397Z,98104.84
2023-06-17T14:42:20.070Z,98110.47
2023-06-17T14:44:46.786Z,98104.47
2023-06-17T14:47:13.564Z,98106.88
2023-06-17T14:49:40.391Z,98110.16
2023-06-17T14:52:07.377Z,98105.47
2023-06-17T14:54:34.584Z,98098.13
2023-06-17T14:57:01.444Z,98101.72
2023-06-17T14:59:28.086Z,98099.84
2023-06-17T15:01:54.734Z,98092.78
2023-06-17T15:04:21.573Z,98094.06
2023-06-17T15:06:48.268Z,98091.00
2023-06-17T15:09:29.028Z,98091.31
2023-06-17T15:11:57.198Z,98088.94
2023-06-17T15:14:25.092Z,98089.41
2023-06-17T15:16:52.318Z,98090.09
2023-06-17T15:19:19.761Z,98082.09
2023-06-17T15:21:47.517Z,98086.31
2023-06-17T15:24:15.680Z,98081.31
2023-06-17T15:26:44.103Z,98080.31
2023-06-17T15:29:11.228Z,98088.72
2023-06-17T15:31:38.746Z,98069.03
2023-06-17T15:34:06.144Z,98075.22
2023-06-17T15:36:32.930Z,98078.22
2023-06-17T15:39:18.206Z,98072.41
2023-06-17T15:41:49.308Z,98083.22
2023-06-17T15:44:16.868Z,98082.41
2023-06-17T15:46:43.943Z,98080.53
2023-06-17T15:49:10.926Z,98074.31
2023-06-17T15:51:38.113Z,98085.06
2023-06-17T15:54:05.572Z,98078.72
2023-06-17T15:56:34.391Z,98076.16
2023-06-17T15:59:01.252Z,98078.94
2023-06-17T16:01:28.347Z,98075.84
2023-06-17T16:03:57.137Z,98079.09
2023-06-17T16:06:24.022Z,98079.72
2023-06-17T16:08:52.175Z,98075.59
2023-06-17T16:11:19.591Z,98079.53
2023-06-17T16:13:46.408Z,98080.28
2023-06-17T16:16:13.161Z,98081.72
2023-06-17T16:18:40.209Z,98075.72
2023-06-17T16:21:06.928Z,98075.91
2023-06-17T16:23:33.652Z,98071.50
2023-06-17T16:26:00.571Z,98068.50
2023-06-17T16:28:27.270Z,98081.50
2023-06-17T16:30:54.099Z,98076.75
2023-06-17T16:33:21.052Z,98069.78
2023-06-17T16:35:47.872Z,98072.38
2023-06-17T16:38:14.769Z,98072.44
2023-06-17T16:40:41.527Z,98069.34
2023-06-17T16:43:08.181Z,98065.75
2023-06-17T16:45:35.353Z,98070.91
2023-06-17T16:48:02.159Z,98066.16
2023-06-17T16:50:28.958Z,98071.94
2023-06-17T16:52:55.741Z,98070.22
2023-06-17T16:55:22.469Z,98068.53
2023-06-17T16:57:49.226Z,98065.97
2023-06-17T17:00:17.908Z,98067.19
2023-06-17T17:02:44.783Z,98071.97
2023-06-17T17:05:12.976Z,98069.91
2023-06-17T17:07:39.660Z,98066.16
2023-06-17T17:10:06.636Z,98070.75
2023-06-17T17:12:33.308Z,98077.09
2023-06-17T17:15:00.029Z,98069.06
2023-06-17T17:17:26.926Z,98064.78
2023-06-17T17:19:54.720Z,98065.16
2023-06-17T17:22:21.528Z,98069.25
2023-06-17T17:24:48.319Z,98064.63
2023-06-17T17:27:15.324Z,98061.88
2023-06-17T17:29:42.479Z,98067.16
2023-06-17T17:32:09.393Z,98075.34
2023-06-17T17:34:36.088Z,98074.50
2023-06-17T17:37:02.927Z,98076.28
2023-06-17T17:39:29.664Z,98075.09
2023-06-17T17:41:56.336Z,98069.78
2023-06-17T17:44:23.066Z,98078.78
2023-06-17T17:46:49.708Z,98083.88
2023-06-17T17:49:16.726Z,98081.81
2023-06-17T17:51:43.403Z,98088.59
2023-06-17T17:54:10.065Z,98085.59
2023-06-17T17:56:37.230Z,98092.53
2023-06-17T17:59:06.904Z,98095.19
2023-06-17T18:01:33.646Z,98096.84
2023-06-17T18:04:00.298Z,98095.28
2023-06-17T18:06:30.234Z,98091.03
2023-06-17T18:08:57.212Z,98095.63
2023-06-17T18:11:24.001Z,98099.53
2023-06-17T18:13:53.836Z,98093.66
2023-06-17T18:16:23.073Z,98092.06
2023-06-17T18:18:50.646Z,98095.38
2023-06-17T18:21:17.522Z,98096.38
2023-06-17T18:23:45.144Z,98095.56
2023-06-17T18:26:11.902Z,98103.91
2023-06-17T18:28:39.152Z,98098.06
2023-06-17T18:31:06.199Z,98107.25
2023-06-17T18:33:33.043Z,98107.50
2023-06-17T18:35:59.700Z,98105.59
2023-06-17T18:38:26.352Z,98103.06
2023-06-17T18:40:53.033Z,98107.88
2023-06-17T18:43:22.906Z,98106.16
2023-06-17T18:45:50.117Z,98115.63
2023-06-17T18:48:16.881Z,98115.50
2023-06-17T18:50:43.603Z,98113.75
2023-06-17T18:53:10.979Z,98111.44
2023-06-17T18:55:38.571Z,98123.84
2023-06-17T18:58:05.317Z,98121.03
2023-06-17T19:00:34.772Z,98111.03
2023-06-17T19:03:05.126Z,98117.94
2023-06-17T19:05:31.846Z,98114.41
2023-06-17T19:07:58.574Z,98119.13
2023-06-17T19:10:25.512Z,98120.00
2023-06-17T19:12:52.245Z,98127.06
2023-06-17T19:15:18.990Z,98133.78
2023-06-17T19:17:57.733Z,98129.84
2023-06-17T19:20:24.499Z,98137.81
2023-06-17T19:22:51.406Z,98139.41
2023-06-17T19:25:18.634Z,98132.69
2023-06-17T19:27:45.580Z,98139.25
2023-06-17T19:30:12.365Z,98133.34
2023-06-17T19:32:40.503Z,98133.63
2023-06-17T19:35:07.769Z,98141.59
2023-06-17T19:37:34.512Z,98139.06
2023-06-17T19:40:01.320Z,98143.91
2023-06-17T19:42:27.975Z,98149.16
2023-06-17T19:44:57.347Z,98153.00
2023-06-17T19:47:25.712Z,98154.09
2023-06-17T19:50:00.289Z,98157.50
2023-06-17T19:52:27.086Z,98156.41
2023-06-17T19:54:53.969Z,98159.66
2023-06-17T19:57:20.795Z,98160.06
2023-06-17T19:59:47.734Z,98162.94
2023-06-17T20:02:15.235Z,98155.34
2023-06-17T20:04:42.083Z,98159.63
2023-06-17T20:07:08.752Z,98153.19
2023-06-17T20:09:35.463Z,98153.72
2023-06-17T20:12:02.166Z,98154.31
2023-06-17T20:14:28.858Z,98147.13
2023-06-17T20:16:55.645Z,98154.81
2023-06-17T20:19:22.356Z,98156.53
2023-06-17T20:21:49.062Z,98159.75
2023-06-17T20:24:15.851Z,98167.78
2023-06-17T20:26:42.601Z,98166.38
2023-06-17T20:29:09.250Z,98168.03
2023-06-17T20:31:35.945Z,98163.75
2023-06-17T20:34:02.621Z,98171.94
2023-06-17T20:36:29.484Z,98172.06
2023-06-17T20:38:56.267Z,98165.84
2023-06-17T20:41:22.963Z,98162.19
2023-06-17T20:43:49.734Z,98178.75
2023-06-17T20:46:16.466Z,98173.88
2023-06-17T20:48:43.305Z,98163.84
2023-06-17T20:51:11.160Z,98174.16
2023-06-17T20:53:38.001Z,98168.13
2023-06-17T20:56:04.719Z,98167.25
2023-06-17T20:58:31.383Z,98166.28
2023-06-17T21:00:58.157Z,98161.75
2023-06-17T21:03:24.938Z,98171.56
2023-06-17T21:05:51.743Z,98165.91
2023-06-17T21:08:18.773Z,98165.91
2023-06-17T21:10:45.601Z,98171.31
2023-06-17T21:13:12.778Z,98174.00
2023-06-17T21:15:39.478Z,98181.19
2023-06-17T21:18:06.395Z,98181.94
2023-06-17T21:20:33.099Z,98185.59
2023-06-17T21:23:00.773Z,98181.78
2023-06-17T21:25:27.471Z,98182.72
2023-06-17T21:27:54.160Z,98180.50
2023-06-17T21:30:21.218Z,98186.13
2023-06-17T21:32:48.256Z,98184.88
2023-06-17T21:35:15.325Z,98182.16
2023-06-17T21:37:42.058Z,98174.06
2023-06-17T21:40:09.942Z,98176.00
2023-06-17T21:42:37.783Z,98182.25
2023-06-17T21:45:04.862Z,98177.97
2023-06-17T21:47:31.590Z,98171.28
2023-06-17T21:49:59.422Z,98178.75
2023-06-17T21:52:26.173Z,98174.16
2023-06-17T21:54:52.919Z,98165.16
2023-06-17T21:57:20.713Z,98172.72
2023-06-17T21:59:47.408Z,98174.16
2023-06-17T22:02:14.059Z,98164.13
2023-06-17T22:04:40.754Z,98175.56
2023-06-17T22:07:07.416Z,98176.13
2023-06-17T22:09:34.118Z,98170.88
2023-06-17T22:12:00.949Z,98173.91
2023-06-17T22:14:27.686Z,98172.59
2023-06-17T22:16:54.442Z,98171.84
2023-06-17T22:19:21.130Z,98171.00
2023-06-17T22:21:47.868Z,98171.09
2023-06-17T22:24:14.699Z,98167.44
2023-06-17T22:26:41.566Z,98171.84
2023-06-17T22:29:08.564Z,98167.59
2023-06-17T22:31:35.307Z,98173.53
2023-06-17T22:34:01.971Z,98179.22
2023-06-17T22:36:28.739Z,98181.38
2023-06-17T22:38:55.406Z,98178.16
2023-06-17T22:41:22.080Z,98184.09
2023-06-17T22:43:49.712Z,98183.97
2023-06-17T22:46:16.488Z,98190.28
2023-06-17T22:48:43.186Z,98185.78
2023-06-17T22:51:09.888Z,98187.88
2023-06-17T22:53:36.629Z,98190.00
2023-06-17T22:56:03.497Z,98191.09
2023-06-17T22:58:30.562Z,98188.53
2023-06-17T23:00:57.390Z,98191.09
2023-06-17T23:03:24.215Z,98202.06
2023-06-17T23:05:51.072Z,98191.63
2023-06-17T23:08:17.736Z,98194.22
2023-06-17T23:10:44.442Z,98189.81
2023-06-17T23:13:11.289Z,98194.75
2023-06-17T23:15:39.288Z,98193.00
2023-06-17T23:18:06.357Z,98196.78
2023-06-17T23:20:33.078Z,98198.16
2023-06-17T23:22:59.782Z,98181.75
2023-06-17T23:25:27.249Z,98189.47
2023-06-17T23:27:54.524Z,98189.97
2023-06-17T23:30:21.952Z,98171.66
2023-06-17T23:32:48.755Z,98185.09
2023-06-17T23:35:15.750Z,98175.72
2023-06-17T23:37:42.485Z,98179.47
2023-06-17T23:40:09.826Z,98166.97
2023-06-17T23:42:37.090Z,98168.78
2023-06-17T23:45:04.792Z,98169.81
2023-06-17T23:47:32.003Z,98160.44
2023-06-17T23:49:58.796Z,98158.94
2023-06-17T23:52:25.624Z,98164.00
2023-06-17T23:54:52.278Z,98163.41
2023-06-17T23:57:19.315Z,98159.66
2023-06-17T23:59:46.040Z,98161.97
